createdAt,value
2018-04-27T00:00:53.784Z,99.90
2018-04-27T00:02:02.483Z,99.90
2018-04-27T00:03:11.281Z,99.90
2018-04-27T00:04:19.963Z,99.90
2018-04-27T00:05:28.779Z,99.90
2018-04-27T00:06:37.442Z,99.90
2018-04-27T00:07:46.158Z,99.90
2018-04-27T00:08:54.860Z,99.90
2018-04-27T00:10:03.591Z,99.90
2018-04-27T00:11:12.176Z,99.90
2018-04-27T00:12:21.651Z,99.90
2018-04-27T00:13:30.350Z,99.90
2018-04-27T00:14:39.081Z,99.90
2018-04-27T00:15:48.597Z,99.90
2018-04-27T00:16:57.310Z,99.90
2018-04-27T00:18:06.627Z,99.90
2018-04-27T00:19:15.337Z,99.90
2018-04-27T00:20:24.047Z,99.90
2018-04-27T00:21:32.663Z,99.90
2018-04-27T00:22:41.297Z,99.90
2018-04-27T00:23:50.014Z,99.90
2018-04-27T00:24:58.727Z,99.90
2018-04-27T00:26:07.325Z,99.90
2018-04-27T00:27:15.932Z,99.90
2018-04-27T00:28:24.678Z,99.90
2018-04-27T00:29:33.360Z,99.90
2018-04-27T00:30:41.980Z,99.90
2018-04-27T00:31:50.553Z,99.90
2018-04-27T00:32:59.309Z,99.90
2018-04-27T00:34:08.055Z,99.90
2018-04-27T00:35:16.674Z,99.90
2018-04-27T00:36:25.382Z,99.90
2018-04-27T00:37:34.177Z,99.90
2018-04-27T00:38:42.902Z,99.90
2018-04-27T00:39:51.624Z,99.90
2018-04-27T00:41:00.301Z,99.90
2018-04-27T00:42:09.034Z,99.90
2018-04-27T00:43:18.320Z,99.90
2018-04-27T00:44:26.992Z,99.90
2018-04-27T00:45:35.635Z,99.90
2018-04-27T00:46:44.395Z,99.90
2018-04-27T00:47:53.064Z,99.90
2018-04-27T00:49:01.658Z,99.90
2018-04-27T00:50:10.446Z,99.90
2018-04-27T00:51:19.210Z,99.90
2018-04-27T00:52:27.966Z,99.90
2018-04-27T00:53:37.479Z,99.90
2018-04-27T00:54:46.299Z,99.90
2018-04-27T00:55:54.973Z,99.90
2018-04-27T00:57:03.599Z,99.90
2018-04-27T00:58:13.006Z,99.90
2018-04-27T00:59:21.693Z,99.90
2018-04-27T01:00:30.467Z,99.90
2018-04-27T01:01:39.140Z,99.90
2018-04-27T01:02:47.920Z,99.90
2018-04-27T01:03:57.379Z,99.90
2018-04-27T01:05:06.077Z,99.90
2018-04-27T01:06:14.531Z,99.90
2018-04-27T01:07:23.095Z,99.90
2018-04-27T01:08:32.541Z,99.90
2018-04-27T01:09:41.228Z,99.90
2018-04-27T01:10:50.172Z,99.90
2018-04-27T01:11:58.904Z,99.90
2018-04-27T01:13:07.731Z,99.90
2018-04-27T01:14:17.315Z,99.90
2018-04-27T01:15:26.035Z,99.90
2018-04-27T01:16:34.740Z,99.90
2018-04-27T01:17:43.338Z,99.90
2018-04-27T01:18:52.927Z,99.90
2018-04-27T01:20:01.578Z,99.90
2018-04-27T01:21:10.264Z,99.90
2018-04-27T01:22:19.000Z,99.90
2018-04-27T01:23:27.764Z,99.90
2018-04-27T01:24:36.423Z,99.90
2018-04-27T01:25:45.183Z,99.90
2018-04-27T01:26:53.874Z,99.90
2018-04-27T01:28:02.571Z,99.90
2018-04-27T01:29:11.294Z,99.90
2018-04-27T01:30:20.123Z,99.90
2018-04-27T01:31:28.786Z,99.90
2018-04-27T01:32:37.525Z,99.90
2018-04-27T01:33:46.217Z,99.90
2018-04-27T01:34:55.055Z,99.90
2018-04-27T01:36:03.885Z,99.90
2018-04-27T01:37:12.624Z,99.90
2018-04-27T01:38:21.412Z,99.90
2018-04-27T01:39:30.074Z,99.90
2018-04-27T01:40:38.686Z,99.90
2018-04-27T01:41:47.297Z,99.90
2018-04-27T01:42:56.066Z,99.90
2018-04-27T01:44:04.891Z,99.90
2018-04-27T01:45:13.589Z,99.90
2018-04-27T01:46:22.274Z,99.90
2018-04-27T01:47:30.905Z,99.90
2018-04-27T01:48:39.611Z,99.90
2018-04-27T01:49:48.249Z,99.90
2018-04-27T01:50:56.864Z,99.90
2018-04-27T01:52:05.633Z,99.90
2018-04-27T01:53:15.155Z,99.90
2018-04-27T01:54:23.832Z,99.90
2018-04-27T01:55:32.691Z,99.90
2018-04-27T01:56:41.450Z,99.90
2018-04-27T01:57:50.194Z,99.90
2018-04-27T01:58:59.834Z,99.90
2018-04-27T02:00:09.483Z,99.90
2018-04-27T02:01:18.257Z,99.90
2018-04-27T02:02:26.861Z,99.90
2018-04-27T02:03:35.503Z,99.90
2018-04-27T02:04:44.256Z,99.90
2018-04-27T02:05:52.841Z,99.90
2018-04-27T02:07:02.426Z,99.90
2018-04-27T02:08:11.309Z,99.90
2018-04-27T02:09:19.973Z,99.90
2018-04-27T02:10:28.595Z,99.90
2018-04-27T02:11:37.373Z,99.90
2018-04-27T02:12:45.945Z,99.90
2018-04-27T02:13:54.718Z,99.90
2018-04-27T02:15:03.334Z,99.90
2018-04-27T02:16:11.989Z,99.90
2018-04-27T02:17:21.579Z,99.90
2018-04-27T02:18:30.353Z,99.90
2018-04-27T02:19:38.984Z,99.90
2018-04-27T02:20:48.320Z,99.90
2018-04-27T02:21:56.934Z,99.90
2018-04-27T02:23:06.437Z,99.90
2018-04-27T02:24:15.902Z,99.90
2018-04-27T02:25:24.688Z,99.90
2018-04-27T02:26:33.293Z,99.90
2018-04-27T02:27:42.038Z,99.90
2018-04-27T02:28:50.747Z,99.90
2018-04-27T02:30:00.270Z,99.90
2018-04-27T02:31:08.781Z,99.90
2018-04-27T02:32:17.435Z,99.90
2018-04-27T02:33:26.207Z,99.90
2018-04-27T02:34:34.777Z,99.90
2018-04-27T02:35:43.489Z,99.90
2018-04-27T02:36:53.040Z,99.90
2018-04-27T02:38:01.766Z,99.90
2018-04-27T02:39:10.423Z,99.90
2018-04-27T02:40:19.044Z,99.90
2018-04-27T02:41:27.691Z,99.90
2018-04-27T02:42:36.383Z,99.90
2018-04-27T02:43:45.106Z,99.90
2018-04-27T02:44:53.931Z,99.90
2018-04-27T02:46:03.414Z,99.90
2018-04-27T02:47:12.769Z,99.90
2018-04-27T02:48:21.483Z,99.90
2018-04-27T02:49:30.142Z,99.90
2018-04-27T02:50:39.607Z,99.90
2018-04-27T02:51:48.362Z,99.90
2018-04-27T02:52:57.001Z,99.90
2018-04-27T02:54:05.680Z,99.90
2018-04-27T02:55:14.226Z,99.90
2018-04-27T02:56:22.776Z,99.90
2018-04-27T02:57:31.494Z,99.90
2018-04-27T02:58:40.059Z,99.90
2018-04-27T02:59:48.730Z,99.90
2018-04-27T03:00:57.379Z,99.90
2018-04-27T03:02:06.180Z,99.90
2018-04-27T03:03:16.484Z,99.90
2018-04-27T03:04:25.179Z,99.90
2018-04-27T03:05:33.887Z,99.90
2018-04-27T03:06:42.424Z,99.90
2018-04-27T03:07:51.062Z,99.90
2018-04-27T03:08:59.828Z,99.90
2018-04-27T03:10:09.136Z,99.90
2018-04-27T03:11:17.818Z,99.90
2018-04-27T03:12:26.542Z,99.90
2018-04-27T03:13:35.041Z,99.90
2018-04-27T03:14:43.663Z,99.90
2018-04-27T03:15:52.269Z,99.90
2018-04-27T03:17:01.703Z,99.90
2018-04-27T03:18:10.404Z,99.90
2018-04-27T03:19:19.030Z,99.90
2018-04-27T03:20:27.694Z,99.90
2018-04-27T03:21:36.439Z,99.90
2018-04-27T03:22:45.991Z,99.90
2018-04-27T03:23:54.821Z,99.90
2018-04-27T03:25:03.449Z,99.90
2018-04-27T03:26:12.270Z,99.90
2018-04-27T03:27:20.962Z,99.90
2018-04-27T03:28:29.778Z,99.90
2018-04-27T03:29:38.458Z,99.90
2018-04-27T03:30:47.256Z,99.90
2018-04-27T03:31:56.000Z,99.90
2018-04-27T03:33:04.501Z,99.90
2018-04-27T03:34:13.279Z,99.90
2018-04-27T03:35:22.642Z,99.90
2018-04-27T03:36:31.259Z,99.90
2018-04-27T03:37:39.925Z,99.90
2018-04-27T03:38:48.725Z,99.90
2018-04-27T03:39:57.435Z,99.90
2018-04-27T03:41:06.223Z,99.90
2018-04-27T03:42:14.912Z,99.90
2018-04-27T03:43:23.532Z,99.90
2018-04-27T03:44:32.108Z,99.90
2018-04-27T03:45:40.722Z,99.90
2018-04-27T03:46:49.346Z,99.90
2018-04-27T03:47:57.957Z,99.90
2018-04-27T03:49:06.510Z,99.90
2018-04-27T03:50:15.132Z,99.90
2018-04-27T03:51:23.753Z,99.90
2018-04-27T03:52:32.507Z,99.90
2018-04-27T03:53:41.215Z,99.90
2018-04-27T03:54:49.776Z,99.90
2018-04-27T03:55:58.426Z,99.90
2018-04-27T03:57:07.107Z,99.90
2018-04-27T03:58:15.819Z,99.90
2018-04-27T03:59:36.535Z,99.90
2018-04-27T04:00:58.012Z,99.90
2018-04-27T04:02:18.619Z,99.90
2018-04-27T04:03:39.403Z,99.90
2018-04-27T04:05:00.087Z,99.90
2018-04-27T04:06:08.811Z,99.90
2018-04-27T04:07:17.654Z,99.90
2018-04-27T04:08:27.170Z,99.90
2018-04-27T04:09:35.770Z,99.90
2018-04-27T04:10:44.388Z,99.90
2018-04-27T04:11:53.082Z,99.90
2018-04-27T04:13:01.771Z,99.90
2018-04-27T04:14:10.386Z,99.90
2018-04-27T04:15:19.042Z,99.90
2018-04-27T04:16:28.549Z,99.90
2018-04-27T04:17:37.136Z,99.90
2018-04-27T04:18:45.656Z,99.90
2018-04-27T04:19:54.405Z,99.90
2018-04-27T04:21:03.213Z,99.90
2018-04-27T04:22:11.935Z,99.90
2018-04-27T04:23:20.635Z,99.90
2018-04-27T04:24:29.450Z,99.90
2018-04-27T04:25:38.833Z,99.90
2018-04-27T04:26:47.628Z,99.90
2018-04-27T04:27:57.087Z,99.90
2018-04-27T04:29:05.835Z,99.90
2018-04-27T04:30:14.382Z,99.90
2018-04-27T04:31:23.949Z,99.90
2018-04-27T04:32:32.742Z,99.90
2018-04-27T04:33:41.396Z,99.90
2018-04-27T04:34:50.988Z,99.90
2018-04-27T04:35:59.793Z,99.90
2018-04-27T04:37:08.387Z,99.90
2018-04-27T04:38:17.215Z,99.90
2018-04-27T04:39:25.862Z,99.90
2018-04-27T04:40:34.627Z,99.90
2018-04-27T04:41:43.276Z,99.90
2018-04-27T04:42:52.122Z,99.90
2018-04-27T04:44:01.018Z,99.90
2018-04-27T04:45:09.577Z,99.90
2018-04-27T04:46:18.184Z,99.90
2018-04-27T04:47:26.937Z,99.90
2018-04-27T04:48:35.648Z,99.90
2018-04-27T04:49:44.348Z,99.90
2018-04-27T04:50:53.884Z,99.90
2018-04-27T04:52:02.781Z,99.90
2018-04-27T04:53:11.423Z,99.90
2018-04-27T04:54:20.095Z,99.90
2018-04-27T04:55:28.740Z,99.90
2018-04-27T04:56:37.365Z,99.90
2018-04-27T04:57:46.039Z,99.90
2018-04-27T04:58:54.656Z,99.90
2018-04-27T05:00:03.371Z,99.90
2018-04-27T05:01:12.054Z,99.90
2018-04-27T05:02:20.939Z,99.90
2018-04-27T05:03:29.660Z,99.90
2018-04-27T05:04:38.340Z,99.90
2018-04-27T05:05:47.180Z,99.90
2018-04-27T05:06:55.790Z,99.90
2018-04-27T05:08:04.582Z,99.90
2018-04-27T05:09:13.327Z,99.90
2018-04-27T05:10:22.055Z,99.90
2018-04-27T05:11:30.807Z,99.90
2018-04-27T05:12:39.586Z,99.90
2018-04-27T05:13:48.125Z,99.90
2018-04-27T05:14:56.790Z,99.90
2018-04-27T05:16:06.270Z,99.90
2018-04-27T05:17:15.760Z,99.90
2018-04-27T05:18:54.097Z,99.90
2018-04-27T05:20:02.436Z,99.90
2018-04-27T05:21:11.282Z,99.90
2018-04-27T05:22:20.850Z,99.90
2018-04-27T05:23:29.443Z,99.90
2018-04-27T05:24:38.180Z,99.90
2018-04-27T05:25:46.815Z,99.90
2018-04-27T05:26:55.645Z,99.90
2018-04-27T05:28:04.264Z,99.90
2018-04-27T05:29:13.028Z,99.90
2018-04-27T05:30:21.754Z,99.90
2018-04-27T05:31:30.496Z,99.90
2018-04-27T05:32:39.249Z,99.80
2018-04-27T05:33:48.023Z,99.90
2018-04-27T05:34:56.785Z,99.90
2018-04-27T05:36:05.451Z,99.90
2018-04-27T05:37:14.158Z,99.90
2018-04-27T05:38:22.861Z,99.00
2018-04-27T05:39:31.683Z,99.00
2018-04-27T05:40:40.483Z,98.80
2018-04-27T05:41:49.923Z,98.70
2018-04-27T05:42:58.592Z,98.70
2018-04-27T05:44:07.243Z,98.30
2018-04-27T05:45:15.895Z,98.20
2018-04-27T05:46:24.559Z,97.90
2018-04-27T05:47:33.156Z,98.00
2018-04-27T05:48:41.983Z,97.90
2018-04-27T05:49:50.716Z,97.60
2018-04-27T05:50:59.318Z,97.60
2018-04-27T05:52:07.941Z,97.70
2018-04-27T05:53:16.606Z,97.80
2018-04-27T05:54:25.245Z,97.70
2018-04-27T05:55:33.908Z,97.70
2018-04-27T05:56:42.497Z,97.60
2018-04-27T05:57:51.268Z,97.70
2018-04-27T05:59:00.816Z,97.60
2018-04-27T06:00:09.427Z,97.60
2018-04-27T06:01:18.854Z,97.70
2018-04-27T06:02:27.461Z,97.70
2018-04-27T06:03:48.085Z,97.60
2018-04-27T06:04:56.678Z,97.40
2018-04-27T06:06:05.342Z,97.20
2018-04-27T06:07:13.898Z,97.00
2018-04-27T06:08:22.610Z,97.20
2018-04-27T06:09:31.190Z,97.50
2018-04-27T06:10:39.808Z,97.50
2018-04-27T06:11:49.332Z,97.30
2018-04-27T06:12:58.892Z,96.90
2018-04-27T06:14:08.654Z,96.90
2018-04-27T06:15:17.284Z,96.90
2018-04-27T06:16:25.979Z,96.50
2018-04-27T06:17:34.721Z,96.70
2018-04-27T06:18:43.379Z,96.70
2018-04-27T06:19:51.980Z,97.00
2018-04-27T06:21:00.554Z,97.00
2018-04-27T06:22:10.285Z,96.70
2018-04-27T06:23:19.116Z,96.70
2018-04-27T06:24:27.793Z,96.70
2018-04-27T06:25:36.505Z,96.50
2018-04-27T06:26:45.139Z,96.40
2018-04-27T06:27:53.879Z,96.30
2018-04-27T06:29:03.380Z,96.30
2018-04-27T06:30:11.987Z,96.30
2018-04-27T06:31:21.319Z,96.40
2018-04-27T06:32:29.915Z,96.30
2018-04-27T06:33:38.521Z,96.30
2018-04-27T06:34:48.043Z,96.30
2018-04-27T06:35:56.903Z,96.10
2018-04-27T06:37:05.617Z,96.10
2018-04-27T06:38:14.272Z,95.80
2018-04-27T06:39:23.045Z,95.60
2018-04-27T06:40:31.615Z,95.50
2018-04-27T06:41:40.319Z,95.40
2018-04-27T06:42:49.173Z,95.20
2018-04-27T06:43:57.829Z,95.20
2018-04-27T06:45:06.443Z,95.20
2018-04-27T06:46:15.065Z,95.40
2018-04-27T06:47:23.704Z,95.60
2018-04-27T06:48:32.306Z,95.30
2018-04-27T06:49:41.017Z,95.50
2018-04-27T06:50:50.207Z,95.50
2018-04-27T06:51:58.947Z,95.30
2018-04-27T06:53:07.589Z,95.30
2018-04-27T06:54:16.371Z,95.40
2018-04-27T06:55:25.708Z,95.20
2018-04-27T06:56:34.331Z,95.20
2018-04-27T06:57:42.991Z,95.20
2018-04-27T06:58:52.419Z,94.90
2018-04-27T07:00:01.104Z,94.80
2018-04-27T07:01:09.629Z,94.60
2018-04-27T07:02:18.381Z,94.60
2018-04-27T07:03:26.924Z,94.50
2018-04-27T07:04:35.552Z,93.80
2018-04-27T07:05:44.338Z,93.60
2018-04-27T07:06:52.873Z,93.50
2018-04-27T07:08:01.515Z,93.60
2018-04-27T07:09:10.203Z,93.70
2018-04-27T07:10:19.831Z,93.60
2018-04-27T07:11:28.599Z,93.60
2018-04-27T07:12:38.139Z,93.50
2018-04-27T07:13:46.990Z,93.50
2018-04-27T07:14:55.691Z,93.40
2018-04-27T07:16:04.437Z,93.30
2018-04-27T07:17:13.143Z,93.40
2018-04-27T07:18:22.652Z,93.30
2018-04-27T07:19:31.345Z,93.30
2018-04-27T07:20:40.128Z,93.30
2018-04-27T07:21:48.843Z,93.30
2018-04-27T07:22:57.391Z,93.30
2018-04-27T07:24:06.084Z,93.30
2018-04-27T07:25:15.554Z,93.20
2018-04-27T07:26:24.150Z,93.20
2018-04-27T07:27:32.911Z,93.20
2018-04-27T07:28:41.664Z,93.00
2018-04-27T07:29:50.394Z,93.10
2018-04-27T07:30:59.820Z,93.00
2018-04-27T07:32:08.487Z,93.00
2018-04-27T07:33:17.176Z,93.10
2018-04-27T07:34:25.986Z,93.10
2018-04-27T07:35:34.559Z,93.00
2018-04-27T07:36:43.243Z,92.50
2018-04-27T07:37:51.933Z,92.80
2018-04-27T07:39:00.599Z,92.50
2018-04-27T07:40:09.251Z,92.50
2018-04-27T07:41:17.851Z,92.40
2018-04-27T07:42:27.258Z,92.10
2018-04-27T07:43:35.766Z,92.00
2018-04-27T07:44:44.464Z,91.70
2018-04-27T07:45:53.079Z,91.70
2018-04-27T07:47:01.783Z,91.60
2018-04-27T07:48:10.482Z,91.60
2018-04-27T07:49:19.308Z,91.50
2018-04-27T07:50:27.966Z,91.30
2018-04-27T07:51:37.440Z,91.00
2018-04-27T07:52:46.901Z,91.10
2018-04-27T07:53:55.506Z,91.10
2018-04-27T07:55:04.174Z,91.20
2018-04-27T07:56:12.940Z,91.10
2018-04-27T07:57:22.431Z,91.10
2018-04-27T07:58:31.169Z,90.80
2018-04-27T07:59:39.984Z,90.90
2018-04-27T08:00:49.594Z,91.10
2018-04-27T08:01:59.003Z,91.10
2018-04-27T08:03:07.823Z,91.10
2018-04-27T08:04:16.575Z,90.90
2018-04-27T08:05:25.290Z,90.80
2018-04-27T08:06:33.954Z,90.60
2018-04-27T08:07:42.551Z,90.60
2018-04-27T08:08:51.242Z,90.70
2018-04-27T08:10:00.679Z,90.50
2018-04-27T08:11:09.371Z,90.50
2018-04-27T08:12:18.199Z,90.50
2018-04-27T08:13:26.934Z,90.50
2018-04-27T08:14:36.330Z,90.40
2018-04-27T08:15:45.049Z,90.30
2018-04-27T08:16:53.851Z,90.30
2018-04-27T08:18:02.490Z,90.20
2018-04-27T08:19:11.034Z,90.00
2018-04-27T08:20:28.089Z,89.70
2018-04-27T08:21:36.693Z,89.90
2018-04-27T08:22:45.363Z,90.10
2018-04-27T08:23:53.983Z,90.00
2018-04-27T08:25:02.757Z,89.20
2018-04-27T08:26:11.469Z,88.90
2018-04-27T08:27:20.033Z,88.50
2018-04-27T08:28:28.665Z,88.80
2018-04-27T08:29:37.294Z,88.80
2018-04-27T08:30:46.048Z,88.40
2018-04-27T08:31:54.710Z,88.30
2018-04-27T08:33:03.291Z,88.50
2018-04-27T08:34:12.672Z,88.50
2018-04-27T08:35:22.104Z,88.80
2018-04-27T08:36:30.772Z,88.70
2018-04-27T08:37:39.464Z,88.20
2018-04-27T08:38:48.125Z,88.60
2018-04-27T08:39:56.938Z,88.70
2018-04-27T08:41:05.511Z,88.90
2018-04-27T08:42:14.857Z,87.90
2018-04-27T08:43:23.618Z,87.90
2018-04-27T08:44:32.257Z,86.30
2018-04-27T08:45:41.086Z,86.20
2018-04-27T08:46:49.745Z,86.30
2018-04-27T08:47:58.415Z,86.20
2018-04-27T08:49:07.057Z,86.50
2018-04-27T08:50:15.730Z,86.40
2018-04-27T08:51:24.448Z,86.50
2018-04-27T08:52:33.990Z,86.40
2018-04-27T08:53:43.427Z,86.30
2018-04-27T08:54:52.113Z,86.20
2018-04-27T08:56:00.716Z,85.60
2018-04-27T08:57:09.351Z,85.20
2018-04-27T08:58:18.676Z,84.40
2018-04-27T08:59:27.273Z,84.30
2018-04-27T09:00:35.879Z,84.30
2018-04-27T09:01:44.647Z,84.40
2018-04-27T09:02:53.461Z,84.70
2018-04-27T09:04:02.122Z,84.90
2018-04-27T09:05:10.885Z,84.30
2018-04-27T09:06:19.629Z,84.70
2018-04-27T09:07:28.251Z,84.30
2018-04-27T09:08:36.846Z,84.10
2018-04-27T09:09:45.465Z,83.60
2018-04-27T09:10:54.093Z,83.10
2018-04-27T09:12:02.723Z,83.10
2018-04-27T09:13:11.538Z,83.50
2018-04-27T09:14:20.132Z,83.20
2018-04-27T09:15:28.974Z,83.30
2018-04-27T09:16:37.585Z,83.50
2018-04-27T09:17:46.149Z,83.60
2018-04-27T09:18:54.759Z,83.70
2018-04-27T09:20:04.115Z,81.30
2018-04-27T09:21:12.764Z,81.30
2018-04-27T09:22:21.444Z,81.40
2018-04-27T09:23:30.210Z,80.10
2018-04-27T09:24:38.882Z,79.50
2018-04-27T09:25:47.527Z,79.20
2018-04-27T09:26:56.303Z,79.70
2018-04-27T09:28:04.889Z,79.80
2018-04-27T09:29:13.498Z,79.40
2018-04-27T09:30:22.180Z,79.40
2018-04-27T09:31:30.762Z,79.10
2018-04-27T09:32:39.492Z,78.00
2018-04-27T09:33:48.210Z,77.60
2018-04-27T09:34:56.851Z,77.20
2018-04-27T09:36:05.675Z,77.10
2018-04-27T09:37:14.283Z,77.90
2018-04-27T09:38:22.839Z,78.30
2018-04-27T09:39:31.590Z,77.70
2018-04-27T09:40:40.148Z,76.10
2018-04-27T09:41:48.694Z,76.40
2018-04-27T09:42:57.346Z,77.10
2018-04-27T09:44:05.911Z,77.50
2018-04-27T09:45:14.656Z,77.80
2018-04-27T09:46:23.147Z,78.20
2018-04-27T09:47:31.851Z,78.50
2018-04-27T09:48:40.637Z,78.90
2018-04-27T09:49:49.280Z,78.80
2018-04-27T09:50:57.952Z,78.20
2018-04-27T09:52:06.650Z,77.70
2018-04-27T09:53:15.382Z,77.40
2018-04-27T09:54:24.333Z,77.00
2018-04-27T09:55:32.995Z,76.70
2018-04-27T09:56:41.699Z,76.30
2018-04-27T09:57:50.357Z,76.20
2018-04-27T09:58:59.161Z,75.20
2018-04-27T10:00:07.819Z,75.10
2018-04-27T10:01:16.491Z,74.50
2018-04-27T10:02:25.974Z,74.10
2018-04-27T10:03:34.607Z,74.00
2018-04-27T10:04:43.208Z,73.40
2018-04-27T10:05:51.808Z,72.10
2018-04-27T10:07:00.576Z,72.30
2018-04-27T10:08:09.322Z,72.50
2018-04-27T10:09:17.878Z,72.40
2018-04-27T10:10:26.539Z,70.30
2018-04-27T10:11:36.120Z,70.80
2018-04-27T10:12:44.930Z,70.70
2018-04-27T10:13:53.696Z,70.90
2018-04-27T10:15:02.365Z,71.50
2018-04-27T10:16:10.909Z,72.40
2018-04-27T10:17:19.849Z,72.90
2018-04-27T10:18:28.473Z,73.10
2018-04-27T10:19:41.571Z,72.90
2018-04-27T10:20:50.292Z,73.00
2018-04-27T10:21:58.975Z,73.80
2018-04-27T10:23:07.690Z,73.50
2018-04-27T10:24:16.380Z,72.50
2018-04-27T10:25:25.124Z,72.70
2018-04-27T10:26:33.719Z,72.50
2018-04-27T10:27:42.324Z,72.30
2018-04-27T10:28:51.043Z,72.50
2018-04-27T10:29:59.816Z,71.50
2018-04-27T10:31:08.630Z,71.70
2018-04-27T10:32:17.354Z,71.50
2018-04-27T10:33:25.972Z,71.10
2018-04-27T10:34:34.698Z,71.10
2018-04-27T10:35:43.398Z,71.10
2018-04-27T10:36:52.062Z,70.80
2018-04-27T10:38:00.656Z,70.80
2018-04-27T10:39:09.360Z,70.40
2018-04-27T10:40:17.974Z,69.40
2018-04-27T10:41:26.566Z,69.40
2018-04-27T10:42:35.172Z,69.90
2018-04-27T10:43:43.787Z,69.30
2018-04-27T10:44:52.623Z,69.50
2018-04-27T10:46:01.239Z,69.70
2018-04-27T10:47:09.907Z,69.90
2018-04-27T10:48:19.453Z,69.70
2018-04-27T10:49:28.249Z,69.60
2018-04-27T10:50:37.004Z,70.90
2018-04-27T10:51:45.725Z,70.50
2018-04-27T10:52:54.415Z,70.70
2018-04-27T10:54:03.231Z,70.80
2018-04-27T10:55:11.905Z,70.20
2018-04-27T10:56:20.677Z,70.40
2018-04-27T10:57:30.210Z,70.50
2018-04-27T10:58:39.019Z,70.50
2018-04-27T10:59:47.674Z,70.10
2018-04-27T11:00:56.412Z,69.70
2018-04-27T11:02:05.096Z,69.80
2018-04-27T11:03:13.908Z,69.60
2018-04-27T11:04:22.624Z,69.50
2018-04-27T11:05:31.227Z,69.80
2018-04-27T11:06:39.933Z,69.90
2018-04-27T11:07:48.738Z,69.50
2018-04-27T11:08:57.398Z,69.30
2018-04-27T11:10:06.067Z,69.00
2018-04-27T11:11:14.637Z,68.50
2018-04-27T11:12:23.376Z,68.20
2018-04-27T11:13:32.135Z,67.80
2018-04-27T11:14:40.761Z,67.90
2018-04-27T11:15:49.427Z,67.90
2018-04-27T11:16:58.283Z,68.10
2018-04-27T11:18:06.867Z,68.60
2018-04-27T11:19:15.608Z,69.10
2018-04-27T11:20:25.913Z,68.70
2018-04-27T11:21:34.515Z,68.60
2018-04-27T11:22:43.133Z,68.90
2018-04-27T11:23:52.554Z,68.70
2018-04-27T11:25:01.324Z,68.70
2018-04-27T11:26:10.024Z,68.80
2018-04-27T11:27:18.740Z,68.80
2018-04-27T11:28:27.421Z,68.70
2018-04-27T11:29:36.869Z,68.40
2018-04-27T11:30:45.567Z,68.40
2018-04-27T11:31:54.155Z,67.90
2018-04-27T11:33:02.760Z,67.60
2018-04-27T11:34:11.416Z,67.30
2018-04-27T11:35:20.954Z,68.70
2018-04-27T11:36:29.567Z,68.60
2018-04-27T11:37:38.118Z,68.60
2018-04-27T11:38:46.869Z,68.50
2018-04-27T11:39:55.750Z,68.90
2018-04-27T11:41:04.365Z,68.80
2018-04-27T11:42:13.062Z,68.90
2018-04-27T11:43:21.800Z,69.50
2018-04-27T11:44:30.406Z,70.00
2018-04-27T11:45:39.888Z,70.10
2018-04-27T11:46:48.722Z,70.10
2018-04-27T11:47:57.382Z,69.70
2018-04-27T11:49:06.076Z,69.30
2018-04-27T11:50:16.330Z,67.90
2018-04-27T11:51:25.831Z,68.00
2018-04-27T11:52:34.450Z,67.90
2018-04-27T11:53:43.187Z,67.50
2018-04-27T11:54:53.209Z,67.80
2018-04-27T11:56:02.517Z,67.50
2018-04-27T11:57:11.156Z,67.40
2018-04-27T11:58:19.750Z,67.30
2018-04-27T11:59:28.354Z,67.20
2018-04-27T12:00:37.852Z,66.80
2018-04-27T12:01:46.614Z,66.70
2018-04-27T12:02:55.191Z,67.00
2018-04-27T12:04:03.848Z,67.40
2018-04-27T12:05:13.252Z,67.00
2018-04-27T12:06:21.890Z,67.00
2018-04-27T12:07:30.677Z,67.10
2018-04-27T12:08:39.408Z,67.30
2018-04-27T12:09:48.118Z,67.40
2018-04-27T12:10:56.845Z,67.10
2018-04-27T12:12:05.472Z,67.30
2018-04-27T12:13:14.277Z,67.40
2018-04-27T12:14:22.852Z,67.60
2018-04-27T12:15:31.428Z,67.80
2018-04-27T12:16:40.019Z,68.00
2018-04-27T12:17:48.691Z,66.70
2018-04-27T12:18:57.234Z,66.60
2018-04-27T12:20:05.757Z,67.80
2018-04-27T12:21:14.503Z,67.20
2018-04-27T12:22:23.216Z,67.10
2018-04-27T12:23:31.939Z,66.90
2018-04-27T12:24:40.658Z,66.80
2018-04-27T12:25:49.326Z,67.70
2018-04-27T12:26:58.102Z,66.70
2018-04-27T12:28:06.789Z,67.80
2018-04-27T12:29:15.508Z,68.30
2018-04-27T12:30:24.284Z,67.30
2018-04-27T12:31:32.989Z,66.60
2018-04-27T12:32:41.619Z,66.40
2018-04-27T12:33:50.394Z,66.60
2018-04-27T12:34:59.934Z,66.60
2018-04-27T12:36:08.514Z,66.60
2018-04-27T12:37:17.084Z,66.20
2018-04-27T12:38:25.643Z,66.80
2018-04-27T12:39:34.425Z,66.60
2018-04-27T12:40:43.332Z,66.90
2018-04-27T12:41:52.124Z,66.00
2018-04-27T12:43:00.621Z,65.90
2018-04-27T12:44:09.195Z,66.30
2018-04-27T12:45:17.893Z,66.20
2018-04-27T12:46:26.703Z,65.80
2018-04-27T12:47:35.377Z,65.60
2018-04-27T12:48:44.070Z,65.40
2018-04-27T12:49:53.476Z,65.30
2018-04-27T12:51:02.135Z,65.30
2018-04-27T12:52:10.795Z,64.80
2018-04-27T12:53:19.405Z,64.80
2018-04-27T12:54:28.023Z,64.20
2018-04-27T12:55:38.197Z,63.80
2018-04-27T12:56:46.866Z,63.80
2018-04-27T12:57:55.596Z,63.10
2018-04-27T12:59:05.110Z,63.50
2018-04-27T13:00:14.051Z,63.40
2018-04-27T13:01:23.477Z,62.40
2018-04-27T13:02:32.088Z,62.80
2018-04-27T13:03:40.731Z,62.50
2018-04-27T13:04:49.481Z,61.90
2018-04-27T13:05:58.143Z,62.40
2018-04-27T13:07:06.843Z,63.60
2018-04-27T13:08:15.621Z,62.10
2018-04-27T13:09:24.977Z,61.50
2018-04-27T13:10:33.691Z,61.40
2018-04-27T13:11:42.262Z,61.00
2018-04-27T13:12:51.000Z,60.90
2018-04-27T13:13:59.602Z,60.40
2018-04-27T13:15:08.187Z,60.90
2018-04-27T13:16:16.883Z,60.00
2018-04-27T13:17:25.598Z,59.30
2018-04-27T13:18:34.359Z,58.80
2018-04-27T13:19:43.063Z,58.70
2018-04-27T13:20:51.744Z,58.60
2018-04-27T13:22:00.429Z,58.50
2018-04-27T13:23:09.026Z,58.40
2018-04-27T13:24:17.684Z,58.00
2018-04-27T13:25:26.306Z,57.80
2018-04-27T13:26:35.725Z,57.60
2018-04-27T13:27:45.054Z,56.90
2018-04-27T13:28:53.772Z,56.90
2018-04-27T13:30:02.518Z,56.50
2018-04-27T13:31:11.924Z,55.80
2018-04-27T13:32:20.579Z,56.10
2018-04-27T13:33:30.039Z,56.10
2018-04-27T13:34:39.594Z,55.80
2018-04-27T13:35:48.288Z,55.80
2018-04-27T13:36:56.936Z,55.40
2018-04-27T13:38:05.518Z,54.80
2018-04-27T13:39:14.363Z,54.80
2018-04-27T13:40:23.017Z,54.50
2018-04-27T13:41:32.552Z,53.70
2018-04-27T13:42:41.299Z,53.60
2018-04-27T13:43:49.852Z,53.10
2018-04-27T13:44:58.518Z,52.90
2018-04-27T13:46:07.188Z,53.10
2018-04-27T13:47:15.708Z,52.80
2018-04-27T13:48:25.018Z,52.40
2018-04-27T13:49:33.882Z,52.20
2018-04-27T13:50:43.570Z,51.90
2018-04-27T13:51:52.364Z,51.80
2018-04-27T13:53:00.788Z,51.80
2018-04-27T13:54:09.400Z,51.50
2018-04-27T13:55:18.042Z,51.20
2018-04-27T13:56:26.766Z,51.30
2018-04-27T13:57:35.415Z,50.90
2018-04-27T13:58:44.065Z,50.80
2018-04-27T13:59:52.705Z,50.60
2018-04-27T14:01:01.374Z,50.40
2018-04-27T14:02:10.100Z,50.10
2018-04-27T14:03:18.849Z,50.30
2018-04-27T14:04:27.470Z,49.90
2018-04-27T14:05:36.087Z,49.50
2018-04-27T14:06:44.856Z,49.20
2018-04-27T14:07:54.369Z,49.00
2018-04-27T14:09:02.973Z,48.90
2018-04-27T14:10:11.554Z,48.70
2018-04-27T14:11:20.355Z,48.50
2018-04-27T14:12:29.083Z,48.30
2018-04-27T14:13:37.691Z,48.00
2018-04-27T14:14:46.399Z,47.60
2018-04-27T14:15:55.035Z,47.10
2018-04-27T14:17:03.750Z,47.00
2018-04-27T14:18:13.279Z,46.80
2018-04-27T14:19:22.884Z,47.10
2018-04-27T14:20:31.599Z,46.80
2018-04-27T14:21:40.199Z,46.50
2018-04-27T14:22:48.971Z,46.40
2018-04-27T14:23:57.586Z,45.70
2018-04-27T14:25:06.271Z,45.90
2018-04-27T14:26:14.850Z,45.90
2018-04-27T14:27:23.605Z,45.80
2018-04-27T14:28:32.277Z,45.70
2018-04-27T14:29:40.990Z,45.60
2018-04-27T14:30:49.622Z,45.40
2018-04-27T14:31:58.404Z,45.00
2018-04-27T14:33:06.902Z,45.00
2018-04-27T14:34:16.242Z,45.00
2018-04-27T14:35:24.941Z,45.00
2018-04-27T14:36:33.551Z,44.60
2018-04-27T14:37:42.163Z,44.80
2018-04-27T14:38:50.891Z,44.90
2018-04-27T14:39:59.500Z,44.40
2018-04-27T14:41:08.213Z,44.30
2018-04-27T14:42:16.919Z,44.20
2018-04-27T14:43:25.598Z,44.50
2018-04-27T14:44:34.122Z,44.20
2018-04-27T14:45:42.668Z,44.30
2018-04-27T14:46:51.233Z,43.90
2018-04-27T14:47:59.742Z,43.70